sensor_id;sensor_type;location;lat;lon;timestamp;temperature;humidity
28767;DHT22;15921;52.034;20.650;2023-03-23T00:01:47;9.90;99.90
28767;DHT22;15921;52.034;20.650;2023-03-23T00:04:16;9.90;99.90
28767;DHT22;15921;52.034;20.650;2023-03-23T00:06:42;9.90;99.90
28767;DHT22;15921;52.034;20.650;2023-03-23T00:09:11;9.90;99.90
28767;DHT22;15921;52.034;20.650;2023-03-23T00:11:37;9.90;99.90
28767;DHT22;15921;52.034;20.650;2023-03-23T00:14:04;9.90;99.90
28767;DHT22;15921;52.034;20.650;2023-03-23T00:16:32;9.90;99.90
28767;DHT22;15921;52.034;20.650;2023-03-23T00:19:05;9.90;99.90
28767;DHT22;15921;52.034;20.650;2023-03-23T00:21:37;10.00;99.90
28767;DHT22;15921;52.034;20.650;2023-03-23T00:24:24;10.10;99.90
28767;DHT22;15921;52.034;20.650;2023-03-23T00:26:49;10.10;99.90
28767;DHT22;15921;52.034;20.650;2023-03-23T00:29:22;10.20;99.90
28767;DHT22;15921;52.034;20.650;2023-03-23T00:31:49;10.30;99.90
28767;DHT22;15921;52.034;20.650;2023-03-23T00:34:20;10.30;99.90
28767;DHT22;15921;52.034;20.650;2023-03-23T00:36:51;10.40;99.90
28767;DHT22;15921;52.034;20.650;2023-03-23T00:39:19;10.40;99.90
28767;DHT22;15921;52.034;20.650;2023-03-23T00:41:45;10.50;99.90
28767;DHT22;15921;52.034;20.650;2023-03-23T00:44:12;10.60;99.90
28767;DHT22;15921;52.034;20.650;2023-03-23T00:46:46;10.60;99.90
28767;DHT22;15921;52.034;20.650;2023-03-23T00:49:16;10.60;99.90
28767;DHT22;15921;52.034;20.650;2023-03-23T00:51:42;10.70;99.90
28767;DHT22;15921;52.034;20.650;2023-03-23T00:54:08;10.70;99.90
28767;DHT22;15921;52.034;20.650;2023-03-23T00:56:34;10.80;99.90
28767;DHT22;15921;52.034;20.650;2023-03-23T00:59:00;10.80;99.90
28767;DHT22;15921;52.034;20.650;2023-03-23T01:01:26;10.90;99.90
28767;DHT22;15921;52.034;20.650;2023-03-23T01:03:51;10.90;99.90
28767;DHT22;15921;52.034;20.650;2023-03-23T01:06:30;11.00;99.90
28767;DHT22;15921;52.034;20.650;2023-03-23T01:08:58;11.00;99.90
28767;DHT22;15921;52.034;20.650;2023-03-23T01:11:24;11.00;99.90
28767;DHT22;15921;52.034;20.650;2023-03-23T01:13:50;11.10;99.90
28767;DHT22;15921;52.034;20.650;2023-03-23T01:16:16;11.10;99.90
28767;DHT22;15921;52.034;20.650;2023-03-23T01:18:42;11.10;99.90
28767;DHT22;15921;52.034;20.650;2023-03-23T01:21:15;11.10;99.90
28767;DHT22;15921;52.034;20.650;2023-03-23T01:23:42;11.10;99.90
28767;DHT22;15921;52.034;20.650;2023-03-23T01:26:13;11.10;99.90
28767;DHT22;15921;52.034;20.650;2023-03-23T01:28:39;11.10;99.90
28767;DHT22;15921;52.034;20.650;2023-03-23T01:31:08;11.00;99.90
28767;DHT22;15921;52.034;20.650;2023-03-23T01:33:34;11.00;99.90
28767;DHT22;15921;52.034;20.650;2023-03-23T01:36:05;11.00;99.90
28767;DHT22;15921;52.034;20.650;2023-03-23T01:38:32;11.00;99.90
28767;DHT22;15921;52.034;20.650;2023-03-23T01:40:58;11.00;99.90
28767;DHT22;15921;52.034;20.650;2023-03-23T01:43:24;11.00;99.90
28767;DHT22;15921;52.034;20.650;2023-03-23T01:45:50;10.90;99.90
28767;DHT22;15921;52.034;20.650;2023-03-23T01:48:20;10.90;99.90
28767;DHT22;15921;52.034;20.650;2023-03-23T01:51:12;10.80;99.90
28767;DHT22;15921;52.034;20.650;2023-03-23T01:53:45;10.80;99.90
28767;DHT22;15921;52.034;20.650;2023-03-23T01:56:12;10.70;99.90
28767;DHT22;15921;52.034;20.650;2023-03-23T01:58:40;10.70;99.90
28767;DHT22;15921;52.034;20.650;2023-03-23T02:01:09;10.70;99.90
28767;DHT22;15921;52.034;20.650;2023-03-23T02:03:38;10.70;99.90
28767;DHT22;15921;52.034;20.650;2023-03-23T02:06:05;10.70;99.90
28767;DHT22;15921;52.034;20.650;2023-03-23T02:08:32;10.70;99.90
28767;DHT22;15921;52.034;20.650;2023-03-23T02:10:59;10.70;99.90
28767;DHT22;15921;52.034;20.650;2023-03-23T02:13:26;10.60;99.90
28767;DHT22;15921;52.034;20.650;2023-03-23T02:18:58;10.60;99.90
28767;DHT22;15921;52.034;20.650;2023-03-23T02:24:41;10.60;99.90
28767;DHT22;15921;52.034;20.650;2023-03-23T02:27:13;10.50;99.90
28767;DHT22;15921;52.034;20.650;2023-03-23T02:35:36;10.50;99.90
28767;DHT22;15921;52.034;20.650;2023-03-23T02:38:21;10.50;99.90
28767;DHT22;15921;52.034;20.650;2023-03-23T02:40:49;10.50;99.90
28767;DHT22;15921;52.034;20.650;2023-03-23T02:43:20;10.50;99.90
28767;DHT22;15921;52.034;20.650;2023-03-23T02:45:47;10.50;99.90
28767;DHT22;15921;52.034;20.650;2023-03-23T02:48:16;10.50;99.90
28767;DHT22;15921;52.034;20.650;2023-03-23T02:50:47;10.40;99.90
28767;DHT22;15921;52.034;20.650;2023-03-23T02:53:22;10.40;99.90
28767;DHT22;15921;52.034;20.650;2023-03-23T02:55:48;10.40;99.90
28767;DHT22;15921;52.034;20.650;2023-03-23T02:58:19;10.40;99.90
28767;DHT22;15921;52.034;20.650;2023-03-23T03:00:45;10.40;99.90
28767;DHT22;15921;52.034;20.650;2023-03-23T03:03:17;10.40;99.90
28767;DHT22;15921;52.034;20.650;2023-03-23T03:06:09;10.40;99.90
28767;DHT22;15921;52.034;20.650;2023-03-23T03:09:33;10.40;99.90
28767;DHT22;15921;52.034;20.650;2023-03-23T03:11:47;10.40;99.90
28767;DHT22;15921;52.034;20.650;2023-03-23T03:14:21;10.30;99.90
28767;DHT22;15921;52.034;20.650;2023-03-23T03:17:03;10.20;99.90
28767;DHT22;15921;52.034;20.650;2023-03-23T03:19:41;10.20;99.90
28767;DHT22;15921;52.034;20.650;2023-03-23T03:22:08;10.10;99.90
28767;DHT22;15921;52.034;20.650;2023-03-23T03:24:35;10.00;99.90
28767;DHT22;15921;52.034;20.650;2023-03-23T03:27:11;9.90;99.90
28767;DHT22;15921;52.034;20.650;2023-03-23T03:29:41;9.90;99.90
28767;DHT22;15921;52.034;20.650;2023-03-23T03:32:11;9.80;99.90
28767;DHT22;15921;52.034;20.650;2023-03-23T03:34:37;9.70;99.90
28767;DHT22;15921;52.034;20.650;2023-03-23T03:37:05;9.60;99.90
28767;DHT22;15921;52.034;20.650;2023-03-23T03:39:35;9.60;99.90
28767;DHT22;15921;52.034;20.650;2023-03-23T03:42:01;9.60;99.90
28767;DHT22;15921;52.034;20.650;2023-03-23T03:44:27;9.50;99.90
28767;DHT22;15921;52.034;20.650;2023-03-23T03:46:52;9.50;99.90
28767;DHT22;15921;52.034;20.650;2023-03-23T03:49:18;9.40;99.90
28767;DHT22;15921;52.034;20.650;2023-03-23T03:51:44;9.40;99.90
28767;DHT22;15921;52.034;20.650;2023-03-23T03:54:10;9.40;99.90
28767;DHT22;15921;52.034;20.650;2023-03-23T03:56:36;9.30;99.90
28767;DHT22;15921;52.034;20.650;2023-03-23T03:59:06;9.40;99.90
28767;DHT22;15921;52.034;20.650;2023-03-23T04:01:33;9.30;99.90
28767;DHT22;15921;52.034;20.650;2023-03-23T04:03:59;9.30;99.90
28767;DHT22;15921;52.034;20.650;2023-03-23T04:06:26;9.30;99.90
28767;DHT22;15921;52.034;20.650;2023-03-23T04:08:57;9.30;99.90
28767;DHT22;15921;52.034;20.650;2023-03-23T04:11:24;9.40;99.90
28767;DHT22;15921;52.034;20.650;2023-03-23T04:13:51;9.40;99.90
28767;DHT22;15921;52.034;20.650;2023-03-23T04:16:17;9.30;99.90
28767;DHT22;15921;52.034;20.650;2023-03-23T04:18:43;9.30;99.90
28767;DHT22;15921;52.034;20.650;2023-03-23T04:21:09;9.30;99.90
28767;DHT22;15921;52.034;20.650;2023-03-23T04:23:36;9.30;99.90
28767;DHT22;15921;52.034;20.650;2023-03-23T04:26:03;9.40;99.90
28767;DHT22;15921;52.034;20.650;2023-03-23T04:28:29;9.40;99.90
28767;DHT22;15921;52.034;20.650;2023-03-23T04:30:55;9.40;99.90
28767;DHT22;15921;52.034;20.650;2023-03-23T04:33:23;9.40;99.90
28767;DHT22;15921;52.034;20.650;2023-03-23T04:35:50;9.30;99.90
28767;DHT22;15921;52.034;20.650;2023-03-23T04:38:17;9.30;99.90
28767;DHT22;15921;52.034;20.650;2023-03-23T04:40:47;9.30;99.90
28767;DHT22;15921;52.034;20.650;2023-03-23T04:43:13;9.30;99.90
28767;DHT22;15921;52.034;20.650;2023-03-23T04:45:40;9.20;99.90
28767;DHT22;15921;52.034;20.650;2023-03-23T04:48:11;9.30;99.90
28767;DHT22;15921;52.034;20.650;2023-03-23T04:50:37;9.40;99.90
28767;DHT22;15921;52.034;20.650;2023-03-23T04:53:04;9.40;99.90
28767;DHT22;15921;52.034;20.650;2023-03-23T04:55:35;9.40;99.90
28767;DHT22;15921;52.034;20.650;2023-03-23T04:58:02;9.50;99.90
28767;DHT22;15921;52.034;20.650;2023-03-23T05:00:28;9.60;99.90
28767;DHT22;15921;52.034;20.650;2023-03-23T05:02:54;9.70;99.90
28767;DHT22;15921;52.034;20.650;2023-03-23T05:05:21;9.70;99.90
28767;DHT22;15921;52.034;20.650;2023-03-23T05:07:48;9.70;99.90
28767;DHT22;15921;52.034;20.650;2023-03-23T05:10:14;9.80;99.90
28767;DHT22;15921;52.034;20.650;2023-03-23T05:12:41;9.90;99.90
28767;DHT22;15921;52.034;20.650;2023-03-23T05:15:07;9.90;99.90
28767;DHT22;15921;52.034;20.650;2023-03-23T05:17:34;9.90;99.90
28767;DHT22;15921;52.034;20.650;2023-03-23T05:20:01;10.00;99.90
28767;DHT22;15921;52.034;20.650;2023-03-23T05:22:28;10.10;99.90
28767;DHT22;15921;52.034;20.650;2023-03-23T05:25:00;10.10;99.90
28767;DHT22;15921;52.034;20.650;2023-03-23T05:27:30;10.20;99.90
28767;DHT22;15921;52.034;20.650;2023-03-23T05:29:59;10.20;99.90
28767;DHT22;15921;52.034;20.650;2023-03-23T05:32:27;10.20;99.90
28767;DHT22;15921;52.034;20.650;2023-03-23T05:34:55;10.30;99.90
28767;DHT22;15921;52.034;20.650;2023-03-23T05:37:22;10.40;99.90
28767;DHT22;15921;52.034;20.650;2023-03-23T05:39:48;10.50;99.90
28767;DHT22;15921;52.034;20.650;2023-03-23T05:42:13;10.60;99.90
28767;DHT22;15921;52.034;20.650;2023-03-23T05:44:39;10.70;99.90
28767;DHT22;15921;52.034;20.650;2023-03-23T05:47:05;10.70;99.90
28767;DHT22;15921;52.034;20.650;2023-03-23T05:49:31;10.80;99.90
28767;DHT22;15921;52.034;20.650;2023-03-23T05:51:56;10.90;99.90
28767;DHT22;15921;52.034;20.650;2023-03-23T05:54:22;11.00;99.90
28767;DHT22;15921;52.034;20.650;2023-03-23T05:56:48;11.10;99.90
28767;DHT22;15921;52.034;20.650;2023-03-23T05:59:14;11.30;99.90
28767;DHT22;15921;52.034;20.650;2023-03-23T06:01:40;11.40;99.90
28767;DHT22;15921;52.034;20.650;2023-03-23T06:04:06;11.40;99.90
28767;DHT22;15921;52.034;20.650;2023-03-23T06:06:32;11.50;99.90
28767;DHT22;15921;52.034;20.650;2023-03-23T06:08:58;11.60;99.90
28767;DHT22;15921;52.034;20.650;2023-03-23T06:11:25;11.70;99.90
28767;DHT22;15921;52.034;20.650;2023-03-23T06:13:52;11.70;99.90
28767;DHT22;15921;52.034;20.650;2023-03-23T06:16:18;11.70;99.90
28767;DHT22;15921;52.034;20.650;2023-03-23T06:18:44;11.80;99.90
28767;DHT22;15921;52.034;20.650;2023-03-23T06:21:11;12.00;99.90
28767;DHT22;15921;52.034;20.650;2023-03-23T06:23:38;12.10;99.90
28767;DHT22;15921;52.034;20.650;2023-03-23T06:26:06;12.10;99.90
28767;DHT22;15921;52.034;20.650;2023-03-23T06:28:33;12.20;99.90
28767;DHT22;15921;52.034;20.650;2023-03-23T06:31:03;12.30;99.90
28767;DHT22;15921;52.034;20.650;2023-03-23T06:33:32;12.30;99.90
28767;DHT22;15921;52.034;20.650;2023-03-23T06:35:59;12.40;99.90
28767;DHT22;15921;52.034;20.650;2023-03-23T06:38:26;12.40;99.90
28767;DHT22;15921;52.034;20.650;2023-03-23T06:40:55;12.40;99.90
28767;DHT22;15921;52.034;20.650;2023-03-23T06:43:21;12.40;99.90
28767;DHT22;15921;52.034;20.650;2023-03-23T06:45:46;12.50;99.90
28767;DHT22;15921;52.034;20.650;2023-03-23T06:48:12;12.50;99.90
28767;DHT22;15921;52.034;20.650;2023-03-23T06:50:41;12.60;99.90
28767;DHT22;15921;52.034;20.650;2023-03-23T06:53:07;12.70;99.90
28767;DHT22;15921;52.034;20.650;2023-03-23T06:55:33;12.90;99.90
28767;DHT22;15921;52.034;20.650;2023-03-23T06:57:59;12.90;99.90
28767;DHT22;15921;52.034;20.650;2023-03-23T07:00:26;13.10;99.90
28767;DHT22;15921;52.034;20.650;2023-03-23T07:02:52;13.20;99.90
28767;DHT22;15921;52.034;20.650;2023-03-23T07:05:18;13.20;99.90
28767;DHT22;15921;52.034;20.650;2023-03-23T07:07:45;13.30;99.90
28767;DHT22;15921;52.034;20.650;2023-03-23T07:10:10;13.50;99.90
28767;DHT22;15921;52.034;20.650;2023-03-23T07:12:36;13.70;99.90
28767;DHT22;15921;52.034;20.650;2023-03-23T07:15:06;13.80;99.90
28767;DHT22;15921;52.034;20.650;2023-03-23T07:17:35;14.00;99.90
28767;DHT22;15921;52.034;20.650;2023-03-23T07:20:00;14.10;99.90
28767;DHT22;15921;52.034;20.650;2023-03-23T07:22:26;14.20;99.90
28767;DHT22;15921;52.034;20.650;2023-03-23T07:24:52;14.20;99.90
28767;DHT22;15921;52.034;20.650;2023-03-23T07:27:17;14.30;99.70
28767;DHT22;15921;52.034;20.650;2023-03-23T07:29:43;14.30;99.10
28767;DHT22;15921;52.034;20.650;2023-03-23T07:32:11;14.40;99.00
28767;DHT22;15921;52.034;20.650;2023-03-23T07:34:37;14.40;98.50
28767;DHT22;15921;52.034;20.650;2023-03-23T07:37:03;14.50;97.70
28767;DHT22;15921;52.034;20.650;2023-03-23T07:39:29;14.50;97.30
28767;DHT22;15921;52.034;20.650;2023-03-23T07:41:55;14.50;97.00
28767;DHT22;15921;52.034;20.650;2023-03-23T07:44:21;14.40;96.80
28767;DHT22;15921;52.034;20.650;2023-03-23T07:46:47;14.40;96.60
28767;DHT22;15921;52.034;20.650;2023-03-23T07:49:13;14.50;96.70
28767;DHT22;15921;52.034;20.650;2023-03-23T07:51:39;14.70;96.20
28767;DHT22;15921;52.034;20.650;2023-03-23T07:54:06;14.80;95.90
28767;DHT22;15921;52.034;20.650;2023-03-23T07:56:34;15.00;95.70
28767;DHT22;15921;52.034;20.650;2023-03-23T07:59:01;15.10;95.10
28767;DHT22;15921;52.034;20.650;2023-03-23T08:01:28;15.20;94.80
28767;DHT22;15921;52.034;20.650;2023-03-23T08:03:54;15.30;94.40
28767;DHT22;15921;52.034;20.650;2023-03-23T08:06:26;15.30;94.00
28767;DHT22;15921;52.034;20.650;2023-03-23T08:08:52;15.40;93.80
28767;DHT22;15921;52.034;20.650;2023-03-23T08:11:18;15.50;93.50
28767;DHT22;15921;52.034;20.650;2023-03-23T08:13:45;15.60;93.20
28767;DHT22;15921;52.034;20.650;2023-03-23T08:16:11;15.70;92.80
28767;DHT22;15921;52.034;20.650;2023-03-23T08:18:37;15.70;92.50
28767;DHT22;15921;52.034;20.650;2023-03-23T08:21:05;15.80;91.90
28767;DHT22;15921;52.034;20.650;2023-03-23T08:23:31;15.90;91.90
28767;DHT22;15921;52.034;20.650;2023-03-23T08:25:58;16.10;91.70
28767;DHT22;15921;52.034;20.650;2023-03-23T08:28:24;16.30;91.10
28767;DHT22;15921;52.034;20.650;2023-03-23T08:30:50;16.50;90.60
28767;DHT22;15921;52.034;20.650;2023-03-23T08:33:16;16.70;90.20
28767;DHT22;15921;52.034;20.650;2023-03-23T08:35:42;16.80;89.30
28767;DHT22;15921;52.034;20.650;2023-03-23T08:38:10;16.90;88.20
28767;DHT22;15921;52.034;20.650;2023-03-23T08:40:37;17.10;87.60
28767;DHT22;15921;52.034;20.650;2023-03-23T08:43:05;17.30;85.60
28767;DHT22;15921;52.034;20.650;2023-03-23T08:45:31;17.30;85.50
28767;DHT22;15921;52.034;20.650;2023-03-23T08:47:56;17.50;84.70
28767;DHT22;15921;52.034;20.650;2023-03-23T08:50:26;17.70;84.20
28767;DHT22;15921;52.034;20.650;2023-03-23T08:52:53;17.80;83.20
28767;DHT22;15921;52.034;20.650;2023-03-23T08:55:20;17.90;82.30
28767;DHT22;15921;52.034;20.650;2023-03-23T08:57:47;17.90;81.70
28767;DHT22;15921;52.034;20.650;2023-03-23T09:00:19;17.80;80.80
28767;DHT22;15921;52.034;20.650;2023-03-23T09:02:47;17.80;80.90
28767;DHT22;15921;52.034;20.650;2023-03-23T09:05:15;17.80;80.90
28767;DHT22;15921;52.034;20.650;2023-03-23T09:07:44;17.80;81.10
28767;DHT22;15921;52.034;20.650;2023-03-23T09:10:10;17.90;81.00
28767;DHT22;15921;52.034;20.650;2023-03-23T09:12:36;17.80;80.60
28767;DHT22;15921;52.034;20.650;2023-03-23T09:15:05;17.80;80.80
28767;DHT22;15921;52.034;20.650;2023-03-23T09:17:36;17.90;80.60
28767;DHT22;15921;52.034;20.650;2023-03-23T09:20:04;18.00;80.20
28767;DHT22;15921;52.034;20.650;2023-03-23T09:22:45;18.30;79.40
28767;DHT22;15921;52.034;20.650;2023-03-23T09:25:13;18.60;78.70
28767;DHT22;15921;52.034;20.650;2023-03-23T09:27:41;18.70;77.80
28767;DHT22;15921;52.034;20.650;2023-03-23T09:30:09;18.70;77.60
28767;DHT22;15921;52.034;20.650;2023-03-23T09:32:36;18.80;77.80
28767;DHT22;15921;52.034;20.650;2023-03-23T09:35:04;18.90;77.00
28767;DHT22;15921;52.034;20.650;2023-03-23T09:37:32;19.00;76.20
28767;DHT22;15921;52.034;20.650;2023-03-23T09:39:58;19.10;76.40
28767;DHT22;15921;52.034;20.650;2023-03-23T09:50:31;19.10;75.00
28767;DHT22;15921;52.034;20.650;2023-03-23T09:53:18;19.00;75.50
28767;DHT22;15921;52.034;20.650;2023-03-23T09:55:44;18.80;74.00
28767;DHT22;15921;52.034;20.650;2023-03-23T09:58:23;18.60;75.80
28767;DHT22;15921;52.034;20.650;2023-03-23T10:01:04;18.40;75.80
28767;DHT22;15921;52.034;20.650;2023-03-23T10:03:37;18.30;76.50
28767;DHT22;15921;52.034;20.650;2023-03-23T10:06:05;18.20;76.50
28767;DHT22;15921;52.034;20.650;2023-03-23T10:08:33;18.10;77.20
28767;DHT22;15921;52.034;20.650;2023-03-23T10:16:25;18.10;75.80
28767;DHT22;15921;52.034;20.650;2023-03-23T10:19:20;18.10;75.70
28767;DHT22;15921;52.034;20.650;2023-03-23T10:21:51;18.10;75.60
28767;DHT22;15921;52.034;20.650;2023-03-23T10:24:26;18.20;76.40
28767;DHT22;15921;52.034;20.650;2023-03-23T10:27:02;18.30;76.20
28767;DHT22;15921;52.034;20.650;2023-03-23T10:29:31;18.50;75.70
28767;DHT22;15921;52.034;20.650;2023-03-23T10:34:39;19.00;74.30
28767;DHT22;15921;52.034;20.650;2023-03-23T10:37:31;19.20;72.10
28767;DHT22;15921;52.034;20.650;2023-03-23T10:40:00;19.30;70.80
28767;DHT22;15921;52.034;20.650;2023-03-23T10:42:30;19.50;69.00
28767;DHT22;15921;52.034;20.650;2023-03-23T10:45:00;19.60;67.80
28767;DHT22;15921;52.034;20.650;2023-03-23T10:47:25;19.60;66.90
28767;DHT22;15921;52.034;20.650;2023-03-23T10:50:00;19.70;67.00
28767;DHT22;15921;52.034;20.650;2023-03-23T10:52:37;19.60;65.50
28767;DHT22;15921;52.034;20.650;2023-03-23T10:55:14;19.60;66.40
28767;DHT22;15921;52.034;20.650;2023-03-23T10:58:01;19.70;65.60
28767;DHT22;15921;52.034;20.650;2023-03-23T11:00:27;19.60;64.80
28767;DHT22;15921;52.034;20.650;2023-03-23T11:08:17;19.70;66.40
28767;DHT22;15921;52.034;20.650;2023-03-23T11:13:41;20.20;64.50
28767;DHT22;15921;52.034;20.650;2023-03-23T11:16:09;20.30;64.70
28767;DHT22;15921;52.034;20.650;2023-03-23T11:18:41;20.40;64.30
28767;DHT22;15921;52.034;20.650;2023-03-23T11:21:12;20.50;64.40
28767;DHT22;15921;52.034;20.650;2023-03-23T11:23:42;20.80;63.20
28767;DHT22;15921;52.034;20.650;2023-03-23T11:26:44;20.80;61.90
28767;DHT22;15921;52.034;20.650;2023-03-23T11:29:20;20.90;59.50
28767;DHT22;15921;52.034;20.650;2023-03-23T11:31:49;21.20;60.80
28767;DHT22;15921;52.034;20.650;2023-03-23T11:34:20;21.60;60.70
28767;DHT22;15921;52.034;20.650;2023-03-23T11:36:53;21.90;59.80
28767;DHT22;15921;52.034;20.650;2023-03-23T11:39:24;21.80;59.60
28767;DHT22;15921;52.034;20.650;2023-03-23T11:41:51;21.80;59.00
28767;DHT22;15921;52.034;20.650;2023-03-23T11:44:18;21.70;58.80
28767;DHT22;15921;52.034;20.650;2023-03-23T11:47:06;21.60;59.00
28767;DHT22;15921;52.034;20.650;2023-03-23T11:52:23;21.40;59.40
28767;DHT22;15921;52.034;20.650;2023-03-23T11:55:08;21.40;59.30
28767;DHT22;15921;52.034;20.650;2023-03-23T11:57:35;21.60;59.40
28767;DHT22;15921;52.034;20.650;2023-03-23T12:00:10;21.90;59.70
28767;DHT22;15921;52.034;20.650;2023-03-23T12:02:52;22.10;58.00
28767;DHT22;15921;52.034;20.650;2023-03-23T12:08:14;22.20;57.60
28767;DHT22;15921;52.034;20.650;2023-03-23T12:11:07;22.40;58.00
28767;DHT22;15921;52.034;20.650;2023-03-23T12:19:42;24.10;54.40
28767;DHT22;15921;52.034;20.650;2023-03-23T12:22:33;24.00;54.10
28767;DHT22;15921;52.034;20.650;2023-03-23T12:25:23;24.10;54.10
28767;DHT22;15921;52.034;20.650;2023-03-23T12:28:05;24.90;53.30
28767;DHT22;15921;52.034;20.650;2023-03-23T12:36:34;26.70;48.80
28767;DHT22;15921;52.034;20.650;2023-03-23T12:48:04;26.80;48.30
28767;DHT22;15921;52.034;20.650;2023-03-23T12:51:02;25.90;49.70
28767;DHT22;15921;52.034;20.650;2023-03-23T12:53:51;25.30;50.90
28767;DHT22;15921;52.034;20.650;2023-03-23T12:56:32;24.60;51.80
28767;DHT22;15921;52.034;20.650;2023-03-23T13:01:50;23.60;52.30
28767;DHT22;15921;52.034;20.650;2023-03-23T13:04:31;23.20;53.30
28767;DHT22;15921;52.034;20.650;2023-03-23T13:07:02;23.20;53.50
28767;DHT22;15921;52.034;20.650;2023-03-23T13:09:43;23.10;53.10
28767;DHT22;15921;52.034;20.650;2023-03-23T13:12:11;22.90;54.00
28767;DHT22;15921;52.034;20.650;2023-03-23T13:20:23;21.60;56.00
28767;DHT22;15921;52.034;20.650;2023-03-23T13:23:20;21.30;57.10
28767;DHT22;15921;52.034;20.650;2023-03-23T13:25:54;21.50;56.90
28767;DHT22;15921;52.034;20.650;2023-03-23T13:28:27;21.60;56.30
28767;DHT22;15921;52.034;20.650;2023-03-23T13:31:11;21.50;56.60
28767;DHT22;15921;52.034;20.650;2023-03-23T13:33:38;21.40;57.50
28767;DHT22;15921;52.034;20.650;2023-03-23T13:36:10;21.10;58.00
28767;DHT22;15921;52.034;20.650;2023-03-23T13:38:38;21.00;58.90
28767;DHT22;15921;52.034;20.650;2023-03-23T13:41:09;21.10;58.80
28767;DHT22;15921;52.034;20.650;2023-03-23T13:43:37;21.20;59.50
28767;DHT22;15921;52.034;20.650;2023-03-23T13:54:46;22.00;56.80
28767;DHT22;15921;52.034;20.650;2023-03-23T13:59:59;20.60;59.50
28767;DHT22;15921;52.034;20.650;2023-03-23T14:02:41;20.10;61.00
28767;DHT22;15921;52.034;20.650;2023-03-23T14:05:28;19.70;62.10
28767;DHT22;15921;52.034;20.650;2023-03-23T14:08:11;19.40;63.40
28767;DHT22;15921;52.034;20.650;2023-03-23T14:13:09;19.10;64.30
28767;DHT22;15921;52.034;20.650;2023-03-23T14:15:45;19.00;64.50
28767;DHT22;15921;52.034;20.650;2023-03-23T14:18:19;18.90;65.00
28767;DHT22;15921;52.034;20.650;2023-03-23T14:20:47;18.80;65.50
28767;DHT22;15921;52.034;20.650;2023-03-23T14:23:18;18.60;65.90
28767;DHT22;15921;52.034;20.650;2023-03-23T14:25:53;18.60;66.20
28767;DHT22;15921;52.034;20.650;2023-03-23T14:28:21;18.60;66.30
28767;DHT22;15921;52.034;20.650;2023-03-23T14:30:51;18.50;66.80
28767;DHT22;15921;52.034;20.650;2023-03-23T14:33:18;18.50;66.80
28767;DHT22;15921;52.034;20.650;2023-03-23T14:35:45;18.60;66.90
28767;DHT22;15921;52.034;20.650;2023-03-23T14:38:23;18.50;66.70
28767;DHT22;15921;52.034;20.650;2023-03-23T14:40:52;18.70;66.90
28767;DHT22;15921;52.034;20.650;2023-03-23T14:43:21;18.70;66.90
28767;DHT22;15921;52.034;20.650;2023-03-23T14:45:54;18.70;66.60
28767;DHT22;15921;52.034;20.650;2023-03-23T14:48:21;18.70;66.30
28767;DHT22;15921;52.034;20.650;2023-03-23T14:50:58;18.60;66.60
28767;DHT22;15921;52.034;20.650;2023-03-23T14:53:32;18.50;66.80
28767;DHT22;15921;52.034;20.650;2023-03-23T14:56:11;18.30;67.20
28767;DHT22;15921;52.034;20.650;2023-03-23T14:58:38;18.20;67.70
28767;DHT22;15921;52.034;20.650;2023-03-23T15:03:35;18.00;68.30
28767;DHT22;15921;52.034;20.650;2023-03-23T15:06:06;17.90;68.80
28767;DHT22;15921;52.034;20.650;2023-03-23T15:08:33;17.80;69.10
28767;DHT22;15921;52.034;20.650;2023-03-23T15:13:35;17.70;69.60
28767;DHT22;15921;52.034;20.650;2023-03-23T15:16:04;17.70;69.80
28767;DHT22;15921;52.034;20.650;2023-03-23T15:18:35;17.70;70.20
28767;DHT22;15921;52.034;20.650;2023-03-23T15:21:22;17.70;70.20
28767;DHT22;15921;52.034;20.650;2023-03-23T15:23:48;17.70;70.50
28767;DHT22;15921;52.034;20.650;2023-03-23T15:26:30;17.70;70.50
28767;DHT22;15921;52.034;20.650;2023-03-23T15:31:42;17.60;70.70
28767;DHT22;15921;52.034;20.650;2023-03-23T15:34:17;17.60;70.70
28767;DHT22;15921;52.034;20.650;2023-03-23T15:36:44;17.60;70.70
28767;DHT22;15921;52.034;20.650;2023-03-23T15:39:12;17.50;70.90
28767;DHT22;15921;52.034;20.650;2023-03-23T15:41:48;17.60;70.90
28767;DHT22;15921;52.034;20.650;2023-03-23T15:44:33;17.60;70.80
28767;DHT22;15921;52.034;20.650;2023-03-23T15:47:19;17.60;70.80
28767;DHT22;15921;52.034;20.650;2023-03-23T15:49:46;17.50;70.80
28767;DHT22;15921;52.034;20.650;2023-03-23T15:52:13;17.50;71.00
28767;DHT22;15921;52.034;20.650;2023-03-23T15:54:46;17.50;71.10
28767;DHT22;15921;52.034;20.650;2023-03-23T15:57:12;17.50;71.10
28767;DHT22;15921;52.034;20.650;2023-03-23T15:59:38;17.50;71.20
28767;DHT22;15921;52.034;20.650;2023-03-23T16:02:04;17.50;71.40
28767;DHT22;15921;52.034;20.650;2023-03-23T16:04:30;17.40;71.50
28767;DHT22;15921;52.034;20.650;2023-03-23T16:06:56;17.40;71.50
28767;DHT22;15921;52.034;20.650;2023-03-23T16:09:23;17.40;71.50
28767;DHT22;15921;52.034;20.650;2023-03-23T16:11:49;17.30;71.80
28767;DHT22;15921;52.034;20.650;2023-03-23T16:14:15;17.30;72.00
28767;DHT22;15921;52.034;20.650;2023-03-23T16:16:46;17.20;72.10
28767;DHT22;15921;52.034;20.650;2023-03-23T16:19:14;17.20;72.30
28767;DHT22;15921;52.034;20.650;2023-03-23T16:21:41;17.10;72.70
28767;DHT22;15921;52.034;20.650;2023-03-23T16:24:08;17.10;73.00
28767;DHT22;15921;52.034;20.650;2023-03-23T16:26:35;17.00;73.40
28767;DHT22;15921;52.034;20.650;2023-03-23T16:29:00;16.90;73.80
28767;DHT22;15921;52.034;20.650;2023-03-23T16:31:27;16.80;74.50
28767;DHT22;15921;52.034;20.650;2023-03-23T16:33:53;16.80;74.70
28767;DHT22;15921;52.034;20.650;2023-03-23T16:36:19;16.80;75.00
28767;DHT22;15921;52.034;20.650;2023-03-23T16:38:45;16.70;76.00
28767;DHT22;15921;52.034;20.650;2023-03-23T16:41:10;16.70;75.50
28767;DHT22;15921;52.034;20.650;2023-03-23T16:43:36;16.60;75.60
28767;DHT22;15921;52.034;20.650;2023-03-23T16:46:02;16.60;75.90
28767;DHT22;15921;52.034;20.650;2023-03-23T16:48:28;16.50;76.10
28767;DHT22;15921;52.034;20.650;2023-03-23T16:50:53;16.40;76.30
28767;DHT22;15921;52.034;20.650;2023-03-23T16:53:20;16.40;76.50
28767;DHT22;15921;52.034;20.650;2023-03-23T16:55:46;16.40;76.80
28767;DHT22;15921;52.034;20.650;2023-03-23T16:58:14;16.30;76.90
28767;DHT22;15921;52.034;20.650;2023-03-23T17:00:41;16.30;77.30
28767;DHT22;15921;52.034;20.650;2023-03-23T17:03:07;16.20;77.50
28767;DHT22;15921;52.034;20.650;2023-03-23T17:05:34;16.20;77.80
28767;DHT22;15921;52.034;20.650;2023-03-23T17:08:00;16.10;78.00